Karos, South Africa
Current Conditions -  °F | °C
As of 12:00 AM on Tuesday 23 Dec 2014 (Local Time) from FAUP Reporting Station
NA  
Wind Chill: 73°   Ceiling: NA
Heat Index: 73°   Visibility: NA
Dew Point: 18°   Wind: 5mph
Humidity: 12%   Direction: 230°SW
Pressure: 29.94"   Gusts: NA
Location:  28.42°S, 21.57°E
Report Text: FAUP 222200Z AUTO 23004KT //// // ////// 23/M08 Q1014
Loading
Personal Weather Stations






























Interactive Weather Map New forecast layout! Learn more

10-Day Weather Forecast

Advertisements
Track Severe Weather on mobile